Time;durP1;ratioP1;P1;durP2;ratioP2;P2;SDS_P1;SDS_P2;PMS_P1;PMS_P2;Temp;Humidity;BMP_temperature;BMP_pressure;BME280_temperature;BME280_humidity;BME280_pressure;Samples;Min_cycle;Max_cycle;Signal;HPM_P1;HPM_P2
2021/11/01 00:00:15;;;;;;;0.79;0.20;;;;;;;11.62;89.85;97974.34;2036554;80;20288;-83
2021/11/01 00:03:19;;;;;;;3.65;0.60;;;;;;;11.61;90.02;97979.59;2030443;80;20149;-84
2021/11/01 00:06:26;;;;;;;1.90;0.30;;;;;;;11.60;90.32;97973.56;2020759;80;20138;-83
2021/11/01 00:09:32;;;;;;;0.71;0.20;;;;;;;11.54;90.47;97996.28;2020331;80;20211;-83
2021/11/01 00:12:36;;;;;;;1.49;0.20;;;;;;;11.56;90.92;97997.09;2022905;80;20170;-83
2021/11/01 00:15:42;;;;;;;1.65;0.30;;;;;;;11.57;91.05;97997.03;2024607;80;20181;-83
2021/11/01 00:18:47;;;;;;;0.93;0.30;;;;;;;11.61;90.95;97987.41;2017047;80;20210;-83
2021/11/01 00:35:20;;;;;;;3.30;0.44;;;;;;;11.67;91.19;98013.19;2284735;73;20237;31
2021/11/01 00:38:23;;;;;;;2.41;0.32;;;;;;;11.64;91.39;98015.91;2031816;80;20178;-82
2021/11/01 00:41:26;;;;;;;2.04;0.30;;;;;;;11.64;91.16;98018.50;2032892;80;20157;-81
2021/11/01 00:44:29;;;;;;;2.46;0.30;;;;;;;11.61;91.25;98022.03;2024547;80;20246;-80
2021/11/01 00:47:32;;;;;;;1.09;0.28;;;;;;;11.61;91.61;98018.59;2015005;78;49725;-81
2021/11/01 00:50:36;;;;;;;3.74;0.43;;;;;;;11.61;91.99;98008.19;2016347;80;20311;-81
2021/11/01 00:53:47;;;;;;;7.40;0.43;;;;;;;11.61;92.42;98016.00;2008227;81;20230;-80
2021/11/01 00:56:50;;;;;;;1.85;0.30;;;;;;;11.59;92.47;98029.03;2010470;81;20266;-80
2021/11/01 00:59:54;;;;;;;2.91;0.32;;;;;;;11.58;92.73;98005.69;2014375;81;20547;-81
2021/11/01 01:02:57;;;;;;;2.76;0.30;;;;;;;11.56;93.20;98010.09;2023812;78;40176;-81
2021/11/01 01:06:03;;;;;;;2.04;0.39;;;;;;;11.54;93.34;98009.28;2023870;80;20152;-83
2021/11/01 01:09:06;;;;;;;4.10;0.50;;;;;;;11.54;93.52;97980.69;2029102;80;20140;-81
2021/11/01 01:12:09;;;;;;;0.99;0.26;;;;;;;11.56;93.75;97971.94;2019896;80;20751;-81
2021/11/01 01:15:26;;;;;;;3.36;0.40;;;;;;;11.52;93.83;97988.56;2027309;80;20146;-82
2021/11/01 01:18:33;;;;;;;3.69;0.40;;;;;;;11.51;93.84;97994.66;2037661;80;20159;-84
2021/11/01 01:25:30;;;;;;;1.84;0.44;;;;;;;11.45;93.05;97937.63;2018336;81;20134;-83
2021/11/01 01:28:33;;;;;;;2.09;0.73;;;;;;;11.40;92.92;97939.53;2012079;85;20121;-82
2021/11/01 01:31:36;;;;;;;2.20;0.38;;;;;;;11.39;93.03;97943.03;2017557;80;20179;-84
2021/11/01 01:34:39;;;;;;;2.42;0.52;;;;;;;11.37;93.10;97922.28;2019955;80;20149;-83
2021/11/01 01:37:45;;;;;;;1.29;0.50;;;;;;;11.31;93.24;97934.59;2027442;80;20129;-84
2021/11/01 01:40:48;;;;;;;3.86;0.35;;;;;;;11.29;93.52;97939.84;2005333;81;20126;-84
2021/11/01 01:43:56;;;;;;;1.14;0.47;;;;;;;11.29;93.72;97947.66;2020854;80;20186;-84
2021/11/01 01:47:01;;;;;;;4.63;1.01;;;;;;;11.28;93.97;97961.53;2013431;81;20137;-85
2021/11/01 01:50:06;;;;;;;2.26;0.40;;;;;;;11.28;94.44;97963.28;2023131;80;20227;-85
2021/11/01 01:53:08;;;;;;;3.17;0.40;;;;;;;11.30;94.58;97958.88;2006215;81;20147;-85
2021/11/01 01:56:14;;;;;;;3.56;0.64;;;;;;;11.30;94.83;97967.53;2005631;81;20151;-85
2021/11/01 01:59:18;;;;;;;2.79;0.40;;;;;;;11.30;94.90;97970.13;2002840;81;20159;-84
2021/11/01 02:02:21;;;;;;;3.53;0.44;;;;;;;11.31;94.99;97977.06;2004856;81;20147;-85
2021/11/01 02:05:35;;;;;;;2.05;0.30;;;;;;;11.33;95.12;97964.03;2008363;81;20147;-84
2021/11/01 02:09:04;;;;;;;3.00;0.40;;;;;;;11.33;95.18;97983.06;2003380;81;20179;-85
2021/11/01 02:12:12;;;;;;;2.50;0.50;;;;;;;11.30;95.10;97996.13;2021301;80;20129;-84
2021/11/01 02:15:20;;;;;;;1.96;0.60;;;;;;;11.29;95.07;97985.78;2017300;80;20141;-85
2021/11/01 02:18:29;;;;;;;1.86;0.51;;;;;;;11.28;95.07;97987.53;2010315;81;20193;-84
2021/11/01 02:21:53;;;;;;;3.91;0.59;;;;;;;11.25;94.90;97991.97;2014907;81;20323;-84
2021/11/01 02:25:09;;;;;;;2.35;0.43;;;;;;;11.24;94.81;97982.47;2004901;81;20140;-84
2021/11/01 02:28:16;;;;;;;2.66;0.60;;;;;;;11.23;94.81;97981.63;1985440;82;20201;-84
2021/11/01 02:31:20;;;;;;;1.45;0.41;;;;;;;11.19;94.67;97987.81;1989193;82;20174;-84
2021/11/01 02:34:25;;;;;;;3.22;0.56;;;;;;;11.22;94.84;97986.88;1985805;82;20240;-84
2021/11/01 02:37:28;;;;;;;5.07;0.70;;;;;;;11.20;94.81;97977.38;1989330;82;20162;-85
2021/11/01 02:40:36;;;;;;;4.00;0.60;;;;;;;11.20;94.69;97992.97;2024575;81;20262;-85
2021/11/01 02:43:39;;;;;;;3.20;0.63;;;;;;;11.18;94.66;98002.53;2017112;81;20142;-84
2021/11/01 02:46:45;;;;;;;2.56;0.59;;;;;;;11.19;94.65;98006.84;2021706;81;20145;-84
2021/11/01 02:49:48;;;;;;;4.59;0.82;;;;;;;11.18;94.68;98007.75;2021961;80;20305;-84
2021/11/01 02:52:50;;;;;;;6.61;1.16;;;;;;;11.19;94.86;97993.84;2018123;80;20155;-84
2021/11/01 02:55:55;;;;;;;3.99;0.74;;;;;;;11.20;94.58;97992.97;2017384;80;20188;-84
2021/11/01 02:58:59;;;;;;;3.20;0.45;;;;;;;11.20;94.57;97986.91;2009279;80;20174;-84
2021/11/01 03:02:02;;;;;;;4.72;0.70;;;;;;;11.21;94.67;97973.03;2019199;80;20134;-84
2021/11/01 03:05:10;;;;;;;4.49;0.51;;;;;;;11.16;94.40;97965.38;2008588;81;20200;-83
2021/11/01 03:08:13;;;;;;;3.94;0.60;;;;;;;11.15;94.51;97975.81;2018826;80;20231;-83
2021/11/01 03:11:22;;;;;;;5.36;0.91;;;;;;;11.15;94.58;97981.84;2014401;81;21230;-82
2021/11/01 03:14:28;;;;;;;4.39;0.80;;;;;;;11.14;94.55;97980.16;2029118;80;20130;-84
2021/11/01 03:17:37;;;;;;;7.10;1.01;;;;;;;11.15;94.54;97986.19;2018802;80;20151;-84
2021/11/01 03:20:43;;;;;;;5.13;0.79;;;;;;;11.16;94.38;97973.16;2017214;80;20142;-84
2021/11/01 03:23:48;;;;;;;4.46;0.90;;;;;;;11.15;94.09;97976.66;2026082;80;20167;-84
2021/11/01 03:26:54;;;;;;;6.53;0.85;;;;;;;11.12;93.87;97968.94;2021002;80;20175;-84
2021/11/01 03:29:57;;;;;;;7.29;1.08;;;;;;;11.10;93.79;97978.53;2016694;80;20134;-83
2021/11/01 03:33:01;;;;;;;5.91;0.71;;;;;;;11.11;93.58;97989.75;2027385;80;20150;-84
2021/11/01 03:36:06;;;;;;;5.64;0.80;;;;;;;11.06;93.21;97981.25;2011138;81;20172;-83
2021/11/01 03:39:13;;;;;;;7.50;0.95;;;;;;;11.05;93.45;97979.56;2015178;80;20263;-86
2021/11/01 03:45:33;;;;;;;5.39;1.64;;;;;;;11.06;93.05;98004.63;2009452;81;20148;-87
2021/11/01 03:48:42;;;;;;;3.92;0.77;;;;;;;11.03;93.13;98013.38;2014057;81;20233;-88
2021/11/01 03:51:51;;;;;;;5.76;0.66;;;;;;;11.00;93.13;98012.63;1998042;86;20191;-85
2021/11/01 03:54:54;;;;;;;3.10;0.63;;;;;;;10.98;93.28;98023.06;1996068;81;20209;-84
2021/11/01 03:58:01;;;;;;;6.22;0.70;;;;;;;10.97;93.14;98023.94;1997821;85;20164;-84
2021/11/01 04:01:06;;;;;;;7.30;0.90;;;;;;;10.95;92.87;98024.84;1993266;82;20166;-85
2021/11/01 04:04:11;;;;;;;3.35;0.63;;;;;;;10.93;92.73;98026.66;1990168;82;20186;-84
2021/11/01 08:37:24;;;;;;;5.10;0.95;;;;;;;12.24;85.25;98116.38;1974387;82;20245;-83
2021/11/01 09:23:46;;;;;;;8.36;1.56;;;;;;;12.71;78.72;98091.38;2046623;81;20144;-83
2021/11/01 11:17:09;;;;;;;5.15;0.57;;;;;;;12.86;69.74;98043.13;2253052;71;20276;31
2021/11/01 12:24:44;;;;;;;4.05;0.40;;;;;;;11.28;83.21;98041.25;2034936;71;20200;-79
2021/11/01 12:28:02;;;;;;;1.34;0.20;;;;;;;11.22;83.39;98020.63;2016342;71;20197;-81
2021/11/01 13:47:49;;;;;;;1.02;0.20;;;;;;;12.39;80.65;97977.94;2218854;71;22599;-82
2021/11/01 18:52:19;;;;;;;2.00;0.82;;;;;;;8.69;91.97;98006.84;2191069;71;20937;-79
2021/11/01 18:55:23;;;;;;;1.04;0.63;;;;;;;8.72;91.90;97997.28;1982677;82;20381;-80
2021/11/01 18:58:27;;;;;;;12.66;7.59;;;;;;;8.77;91.85;97994.59;1994474;82;20398;-82
2021/11/01 19:01:33;;;;;;;4.43;2.70;;;;;;;8.79;92.22;97998.00;1995133;82;20279;-81
2021/11/01 19:04:56;;;;;;;4.00;2.80;;;;;;;8.76;92.17;97998.91;2003740;81;20307;-82
2021/11/01 21:25:23;;;;;;;2.44;0.98;;;;;;;7.86;94.96;97963.47;1989310;81;20304;-82
2021/11/01 21:28:26;;;;;;;4.24;0.99;;;;;;;7.93;95.30;97962.50;1994854;81;20316;-81
2021/11/01 21:31:47;;;;;;;3.20;0.63;;;;;;;7.97;95.40;97958.97;1991249;82;20417;-83
2021/11/01 21:35:06;;;;;;;1.00;0.68;;;;;;;8.02;95.31;97961.47;1997810;81;20282;-79
2021/11/01 21:38:09;;;;;;;3.72;0.60;;;;;;;8.04;95.13;97964.88;1994291;82;20421;-80
2021/11/01 21:41:12;;;;;;;4.43;1.05;;;;;;;8.05;94.72;97957.09;1990812;81;20345;-80
2021/11/01 21:44:14;;;;;;;2.14;0.50;;;;;;;8.05;94.46;97949.34;1991004;82;20326;-81
2021/11/01 21:47:18;;;;;;;1.02;0.49;;;;;;;8.02;94.22;97946.81;1993176;79;42313;-80
2021/11/01 21:50:20;;;;;;;1.48;0.52;;;;;;;8.02;94.15;97951.97;1989808;82;20900;-80
2021/11/01 21:53:36;;;;;;;2.53;0.44;;;;;;;8.03;93.90;97939.91;1985173;82;20406;-80
2021/11/01 21:56:42;;;;;;;2.67;0.50;;;;;;;8.05;93.78;97944.16;1987982;82;20355;-80
2021/11/01 22:19:57;;;;;;;2.08;0.39;;;;;;;7.94;93.29;97920.25;1990783;81;20305;-80
2021/11/01 22:26:20;;;;;;;1.60;0.44;;;;;;;7.84;93.45;97934.22;1991781;81;20498;-80
2021/11/01 22:39:56;;;;;;;3.17;0.30;;;;;;;7.75;93.63;97932.66;1986297;82;20355;-80
2021/11/01 22:59:14;;;;;;;0.99;0.57;;;;;;;7.40;94.15;97915.13;1984565;82;20377;-80
2021/11/01 23:02:17;;;;;;;1.05;0.31;;;;;;;7.33;93.99;97910.91;1982348;79;23258;-80
2021/11/01 23:32:04;;;;;;;2.50;0.34;;;;;;;7.15;94.87;97896.56;1986959;79;27591;-79
2021/11/01 23:35:07;;;;;;;2.28;0.40;;;;;;;7.22;95.03;97893.03;1985960;82;20351;-79
2021/11/01 23:38:10;;;;;;;0.93;0.50;;;;;;;7.26;95.24;97891.25;1990071;81;20402;-80
2021/11/01 23:41:13;;;;;;;1.84;0.40;;;;;;;7.32;95.37;97891.16;1989666;82;20325;-80
2021/11/01 23:44:19;;;;;;;1.42;0.30;;;;;;;7.34;95.45;97885.94;1985771;82;20321;-80
2021/11/01 23:47:22;;;;;;;0.65;0.30;;;;;;;7.38;95.42;97891.06;1984362;79;24421;-80
2021/11/01 23:50:29;;;;;;;1.09;0.30;;;;;;;7.37;95.31;97880.78;1984360;82;20376;-80
2021/11/01 23:56:38;;;;;;;1.75;0.30;;;;;;;7.43;95.59;97878.06;1984546;82;20330;-80
2021/11/01 23:59:42;;;;;;;0.71;0.30;;;;;;;7.42;95.68;97879.81;1984835;82;20321;-80
